Skip Navigation LinksHome page > Weather > Current weather Skip Navigation Links

Current Weather

Heathrow, London

For information only: do not use for flight planning or navigation.
Latest weather
Observation time Monday, October 18, 2021 9:20 PM BST
Local time Monday, October 18, 2021 9:46 PM BST
Flight conditions Instrument Meteorological Conditions
Winds
Wind direction South-Southwest (200°)
Wind speed 9 mph
Visibility 6.2 mi.
Sky condition
Ceiling 500 ft. broken clouds
Cloud layer broken clouds 500 ft.
Cloud layer overcast 900 ft.
Temperature 61°F
Dewpoint 59°F
Altimeter 29.94 in.Hg
Derived measurements
Relative humidity 94%
Density altitude 328 ft.
Remarks
Corrected report.
Fully automated report.
No significant changes expected in the next two hours.
METAR COR EGLL 182020Z AUTO 20008KT 9999 BKN005 OVC009 16/15 Q1014 NOSIG

Settings

Location code

InnerDrive.Weather 4.0.6770.0 Release CLR 4.0.30319.42000
Copyright ©2018 Inner Drive Technology. All rights reserved. Portions Copyright ©1986-2018 David Braverman.

Find weather

Site navigation


Skip Navigation Links

Place info

Page info

PayPal - The safer, easier way to pay online!

Return home.

Copyright ©2021 Inner Drive Technology. Purveyors of fine, hand-crafted computer software. Page printed 2021-10-18T20:46:30 UTC.